createdAt,value
2023-04-16T00:01:04.650Z,18.60
2023-04-16T00:03:31.547Z,18.70
2023-04-16T00:05:59.235Z,18.70
2023-04-16T00:08:27.016Z,18.80
2023-04-16T00:10:53.744Z,18.80
2023-04-16T00:13:21.012Z,18.80
2023-04-16T00:15:48.151Z,18.90
2023-04-16T00:18:15.015Z,18.90
2023-04-16T00:20:41.772Z,18.80
2023-04-16T00:23:09.141Z,19.10
2023-04-16T00:25:35.803Z,18.80
2023-04-16T00:28:03.683Z,18.80
2023-04-16T00:30:31.079Z,18.80
2023-04-16T00:32:58.135Z,18.80
2023-04-16T00:35:24.840Z,18.80
2023-04-16T00:37:51.819Z,18.70
2023-04-16T00:40:18.390Z,18.70
2023-04-16T00:42:45.697Z,18.70
2023-04-16T00:45:12.449Z,18.70
2023-04-16T00:47:40.713Z,18.60
2023-04-16T00:50:08.144Z,18.70
2023-04-16T00:52:34.811Z,18.70
2023-04-16T00:55:01.563Z,18.60
2023-04-16T00:57:29.137Z,18.60
2023-04-16T00:59:56.341Z,18.60
2023-04-16T01:02:23.051Z,18.70
2023-04-16T01:04:50.255Z,18.60
2023-04-16T01:07:17.395Z,18.60
2023-04-16T01:09:43.966Z,18.60
2023-04-16T01:12:10.536Z,18.50
2023-04-16T01:14:37.342Z,18.60
2023-04-16T01:17:04.594Z,18.60
2023-04-16T01:19:31.531Z,18.70
2023-04-16T01:21:59.264Z,18.50
2023-04-16T01:24:26.072Z,18.50
2023-04-16T01:26:53.007Z,18.50
2023-04-16T01:29:19.710Z,18.60
2023-04-16T01:31:46.875Z,18.40
2023-04-16T01:34:13.601Z,18.70
2023-04-16T01:36:40.726Z,18.60
2023-04-16T01:39:09.565Z,18.60
2023-04-16T01:41:36.456Z,18.50
2023-04-16T01:44:03.072Z,18.50
2023-04-16T01:46:31.362Z,18.50
2023-04-16T01:48:58.114Z,18.60
2023-04-16T01:51:24.689Z,18.60
2023-04-16T01:53:52.407Z,18.50
2023-04-16T01:56:19.026Z,18.50
2023-04-16T01:58:46.394Z,18.50
2023-04-16T02:01:13.457Z,18.60
2023-04-16T02:03:41.037Z,18.60
2023-04-16T02:06:08.100Z,18.70
2023-04-16T02:08:34.818Z,18.70
2023-04-16T02:11:01.387Z,18.80
2023-04-16T02:13:28.182Z,18.80
2023-04-16T02:15:54.918Z,18.80
2023-04-16T02:18:21.470Z,18.90
2023-04-16T02:20:50.282Z,18.90
2023-04-16T02:23:17.082Z,18.90
2023-04-16T02:25:45.009Z,18.70
2023-04-16T02:28:12.715Z,18.80
2023-04-16T02:30:39.718Z,18.80
2023-04-16T02:33:07.355Z,18.80
2023-04-16T02:35:35.144Z,18.80
2023-04-16T02:38:02.463Z,18.80
2023-04-16T02:40:30.093Z,18.70
2023-04-16T02:42:57.050Z,18.70
2023-04-16T02:45:24.678Z,18.70
2023-04-16T02:47:51.648Z,18.70
2023-04-16T02:50:18.436Z,18.40
2023-04-16T02:52:45.791Z,18.70
2023-04-16T02:55:12.448Z,18.70
2023-04-16T02:57:39.031Z,18.70
2023-04-16T03:00:06.317Z,18.60
2023-04-16T03:02:32.995Z,18.60
2023-04-16T03:04:59.670Z,18.70
2023-04-16T03:07:26.285Z,18.60
2023-04-16T03:09:52.846Z,18.50
2023-04-16T03:12:19.429Z,18.60
2023-04-16T03:14:46.149Z,18.60
2023-04-16T03:17:12.834Z,18.60
2023-04-16T03:19:39.440Z,18.60
2023-04-16T03:22:06.208Z,18.60
2023-04-16T03:24:32.963Z,18.60
2023-04-16T03:27:02.532Z,18.60
2023-04-16T03:29:29.350Z,18.60
2023-04-16T03:31:56.003Z,18.60
2023-04-16T03:34:24.128Z,18.60
2023-04-16T03:36:50.930Z,18.60
2023-04-16T03:39:17.549Z,18.60
2023-04-16T03:41:44.952Z,18.60
2023-04-16T03:44:12.366Z,18.50
2023-04-16T03:46:39.026Z,18.60
2023-04-16T03:49:05.649Z,18.60
2023-04-16T03:51:32.814Z,18.60
2023-04-16T03:53:59.420Z,18.60
2023-04-16T03:56:26.021Z,18.60
2023-04-16T03:58:52.614Z,18.50
2023-04-16T04:01:19.183Z,18.50
2023-04-16T04:03:46.286Z,18.50
2023-04-16T04:06:13.335Z,18.60
2023-04-16T04:08:39.899Z,18.70
2023-04-16T04:11:06.508Z,18.70
2023-04-16T04:13:33.099Z,18.80
2023-04-16T04:15:59.860Z,18.80
2023-04-16T04:18:26.485Z,18.80
2023-04-16T04:20:53.063Z,18.90
2023-04-16T04:23:19.631Z,18.80
2023-04-16T04:25:46.358Z,18.80
2023-04-16T04:28:13.447Z,18.80
2023-04-16T04:30:40.445Z,18.80
2023-04-16T04:33:07.107Z,18.80
2023-04-16T04:35:34.240Z,18.80
2023-04-16T04:40:28.235Z,18.80
2023-04-16T04:42:54.978Z,18.70
2023-04-16T04:45:25.818Z,18.70
2023-04-16T04:47:52.831Z,18.70
2023-04-16T04:50:19.741Z,18.70
2023-04-16T04:52:46.325Z,18.70
2023-04-16T04:55:15.574Z,18.70
2023-04-16T04:57:42.311Z,18.70
2023-04-16T05:00:09.333Z,18.60
2023-04-16T05:02:36.020Z,18.60
2023-04-16T05:05:03.117Z,18.60
2023-04-16T05:07:29.757Z,18.60
2023-04-16T05:09:56.509Z,18.70
2023-04-16T05:12:23.095Z,18.60
2023-04-16T05:14:49.697Z,18.60
2023-04-16T05:17:16.412Z,18.60
2023-04-16T05:19:42.996Z,18.60
2023-04-16T05:22:09.594Z,18.60
2023-04-16T05:24:36.147Z,18.60
2023-04-16T05:27:02.742Z,18.60
2023-04-16T05:29:29.320Z,18.60
2023-04-16T05:31:56.458Z,18.70
2023-04-16T05:34:23.067Z,18.60
2023-04-16T05:36:49.715Z,18.60
2023-04-16T05:39:16.697Z,18.60
2023-04-16T05:41:43.299Z,18.60
2023-04-16T05:44:09.899Z,18.60
2023-04-16T05:46:36.490Z,18.50
2023-04-16T05:49:03.042Z,18.30
2023-04-16T05:51:29.669Z,18.50
2023-04-16T05:53:56.223Z,18.50
2023-04-16T05:56:23.372Z,18.60
2023-04-16T05:58:49.886Z,18.60
2023-04-16T06:01:16.473Z,18.50
2023-04-16T06:03:43.269Z,18.70
2023-04-16T06:06:09.978Z,18.60
2023-04-16T06:08:36.534Z,18.70
2023-04-16T06:11:03.537Z,18.70
2023-04-16T06:13:30.150Z,18.70
2023-04-16T06:15:56.747Z,19.00
2023-04-16T06:18:23.493Z,18.90
2023-04-16T06:20:50.153Z,18.90
2023-04-16T06:23:16.754Z,18.90
2023-04-16T06:25:43.324Z,18.80
2023-04-16T06:28:09.895Z,18.80
2023-04-16T06:30:36.549Z,18.80
2023-04-16T06:33:03.235Z,18.80
2023-04-16T06:35:29.854Z,18.80
2023-04-16T06:37:56.887Z,18.70
2023-04-16T06:40:23.458Z,18.80
2023-04-16T06:42:50.109Z,18.80
2023-04-16T06:45:16.778Z,18.70
2023-04-16T06:47:43.516Z,18.70
2023-04-16T06:50:10.309Z,18.80
2023-04-16T06:52:36.962Z,18.70
2023-04-16T06:55:03.703Z,18.70
2023-04-16T06:57:30.490Z,18.70
2023-04-16T06:59:57.098Z,18.70
2023-04-16T07:02:23.992Z,18.60
2023-04-16T07:04:52.297Z,18.60
2023-04-16T07:07:18.893Z,18.60
2023-04-16T07:09:45.573Z,18.60
2023-04-16T07:12:12.317Z,18.60
2023-04-16T07:14:38.891Z,18.60
2023-04-16T07:17:05.551Z,18.60
2023-04-16T07:19:32.791Z,18.60
2023-04-16T07:21:59.739Z,18.60
2023-04-16T07:24:26.355Z,18.60
2023-04-16T07:26:52.994Z,18.60
2023-04-16T07:29:19.555Z,18.60
2023-04-16T07:31:46.458Z,18.60
2023-04-16T07:34:13.059Z,18.60
2023-04-16T07:36:39.593Z,18.60
2023-04-16T07:39:06.328Z,18.50
2023-04-16T07:41:33.346Z,18.60
2023-04-16T07:43:59.937Z,18.60
2023-04-16T07:46:30.533Z,18.60
2023-04-16T07:49:02.778Z,18.60
2023-04-16T07:51:29.475Z,18.60
2023-04-16T07:53:56.064Z,18.60
2023-04-16T07:56:22.617Z,18.60
2023-04-16T07:58:49.410Z,18.70
2023-04-16T08:01:15.967Z,18.80
2023-04-16T08:03:43.063Z,18.70
2023-04-16T08:06:09.739Z,18.90
2023-04-16T08:08:36.302Z,18.90
2023-04-16T08:11:02.876Z,19.20
2023-04-16T08:13:30.419Z,18.90
2023-04-16T08:15:58.352Z,18.90
2023-04-16T08:18:25.075Z,18.80
2023-04-16T08:20:51.650Z,18.80
2023-04-16T08:23:18.281Z,18.80
2023-04-16T08:25:44.834Z,18.80
2023-04-16T08:28:11.389Z,18.80
2023-04-16T08:30:38.008Z,18.80
2023-04-16T08:33:04.681Z,18.80
2023-04-16T08:35:31.267Z,18.70
2023-04-16T08:38:01.057Z,18.70
2023-04-16T08:40:28.905Z,18.70
2023-04-16T08:42:58.100Z,18.70
2023-04-16T08:45:26.301Z,18.70
2023-04-16T08:47:53.168Z,18.70
2023-04-16T08:50:23.994Z,18.80
2023-04-16T08:52:53.986Z,18.70
2023-04-16T08:55:23.162Z,18.60
2023-04-16T08:57:54.910Z,18.60
2023-04-16T09:00:21.669Z,18.70
2023-04-16T09:02:50.219Z,18.70
2023-04-16T09:05:17.497Z,18.70
2023-04-16T09:07:45.042Z,18.60
2023-04-16T09:10:12.028Z,18.70
2023-04-16T09:12:38.934Z,18.60
2023-04-16T09:15:06.075Z,18.70
2023-04-16T09:17:34.210Z,18.80
2023-04-16T09:20:00.914Z,18.80
2023-04-16T09:22:27.482Z,18.90
2023-04-16T09:24:54.067Z,19.20
2023-04-16T09:27:21.373Z,19.00
2023-04-16T09:29:48.027Z,19.00
2023-04-16T09:32:14.945Z,18.60
2023-04-16T09:34:57.368Z,18.90
2023-04-16T09:37:24.624Z,18.90
2023-04-16T09:40:01.528Z,18.90
2023-04-16T09:42:32.747Z,18.90
2023-04-16T09:45:01.331Z,18.90
2023-04-16T09:47:45.049Z,18.80
2023-04-16T09:50:18.915Z,18.90
2023-04-16T09:52:48.214Z,18.80
2023-04-16T09:55:15.376Z,18.80
2023-04-16T09:57:41.987Z,18.80
2023-04-16T10:00:09.490Z,18.80
2023-04-16T10:02:39.056Z,18.80
2023-04-16T10:05:06.403Z,18.80
2023-04-16T10:07:34.364Z,18.70
2023-04-16T10:10:01.203Z,18.80
2023-04-16T10:12:28.794Z,18.70
2023-04-16T10:14:55.545Z,18.70
2023-04-16T10:17:23.976Z,18.80
2023-04-16T10:19:51.170Z,18.70
2023-04-16T10:22:17.838Z,18.80
2023-04-16T10:24:45.034Z,18.80
2023-04-16T10:27:12.311Z,18.70
2023-04-16T10:29:39.059Z,18.70
2023-04-16T10:32:06.491Z,18.70
2023-04-16T10:34:33.299Z,18.70
2023-04-16T10:36:59.982Z,18.70
2023-04-16T10:39:27.910Z,18.70
2023-04-16T10:42:07.930Z,18.70
2023-04-16T10:44:34.610Z,18.70
2023-04-16T10:47:01.200Z,18.80
2023-04-16T10:49:27.780Z,18.80
2023-04-16T10:52:04.676Z,18.90
2023-04-16T10:54:31.733Z,19.00
2023-04-16T10:56:59.578Z,19.00
2023-04-16T10:59:30.974Z,19.00
2023-04-16T11:01:59.118Z,19.00
2023-04-16T11:04:26.037Z,19.00
2023-04-16T11:07:11.590Z,19.00
2023-04-16T11:09:48.183Z,19.00
2023-04-16T11:12:16.179Z,18.90
2023-04-16T11:14:42.901Z,18.90
2023-04-16T11:17:09.577Z,18.90
2023-04-16T11:19:37.075Z,18.90
2023-04-16T11:22:04.000Z,18.80
2023-04-16T11:24:33.666Z,18.80
2023-04-16T11:27:01.549Z,18.80
2023-04-16T11:29:28.153Z,18.80
2023-04-16T11:31:55.211Z,18.80
2023-04-16T11:34:21.921Z,18.80
2023-04-16T11:36:49.472Z,18.70
2023-04-16T11:39:16.288Z,18.80
2023-04-16T11:41:46.589Z,18.70
2023-04-16T11:44:27.313Z,18.70
2023-04-16T11:46:54.340Z,18.70
2023-04-16T11:49:27.852Z,18.70
2023-04-16T11:51:55.255Z,18.70
2023-04-16T11:54:22.777Z,18.70
2023-04-16T11:56:51.547Z,18.70
2023-04-16T11:59:23.193Z,18.70
2023-04-16T12:01:51.557Z,18.70
2023-04-16T12:04:26.207Z,18.70
2023-04-16T12:07:12.161Z,18.70
2023-04-16T12:09:40.724Z,18.70
2023-04-16T12:12:25.188Z,18.70
2023-04-16T12:14:51.863Z,18.70
2023-04-16T12:17:21.609Z,18.80
2023-04-16T12:19:49.109Z,18.90
2023-04-16T12:22:15.915Z,18.90
2023-04-16T12:24:42.484Z,19.00
2023-04-16T12:27:09.077Z,19.00
2023-04-16T12:29:35.676Z,19.10
2023-04-16T12:32:02.866Z,19.10
2023-04-16T12:34:47.781Z,19.10
2023-04-16T12:37:15.910Z,19.10
2023-04-16T12:39:42.747Z,19.00
2023-04-16T12:42:11.320Z,19.10
2023-04-16T12:44:38.048Z,19.00
2023-04-16T12:47:05.621Z,18.90
2023-04-16T12:49:32.247Z,18.90
2023-04-16T12:51:58.824Z,18.90
2023-04-16T12:54:28.959Z,18.90
2023-04-16T12:56:55.719Z,18.80
2023-04-16T12:59:22.279Z,18.80
2023-04-16T13:01:48.924Z,18.80
2023-04-16T13:04:19.005Z,18.80
2023-04-16T13:06:45.773Z,18.80
2023-04-16T13:09:12.560Z,18.80
2023-04-16T13:11:39.267Z,18.70
2023-04-16T13:14:06.298Z,18.70
2023-04-16T13:16:32.916Z,18.60
2023-04-16T13:18:59.561Z,18.80
2023-04-16T13:21:27.209Z,18.60
2023-04-16T13:23:54.014Z,18.60
2023-04-16T13:26:20.757Z,18.60
2023-04-16T13:28:47.342Z,18.60
2023-04-16T13:31:15.727Z,18.60
2023-04-16T13:33:42.480Z,18.60
2023-04-16T13:36:09.229Z,18.60
2023-04-16T13:38:39.486Z,18.50
2023-04-16T13:41:06.166Z,18.50
2023-04-16T13:43:32.832Z,18.60
2023-04-16T13:46:00.914Z,18.50
2023-04-16T13:48:28.048Z,18.60
2023-04-16T13:50:54.637Z,18.60
2023-04-16T13:53:21.967Z,18.60
2023-04-16T13:55:49.535Z,18.50
2023-04-16T13:58:16.319Z,19.00
2023-04-16T14:00:43.225Z,18.50
2023-04-16T14:03:09.978Z,18.60
2023-04-16T14:05:36.600Z,18.60
2023-04-16T14:08:03.300Z,18.70
2023-04-16T14:10:29.864Z,18.70
2023-04-16T14:12:56.994Z,18.80
2023-04-16T14:15:26.784Z,18.90
2023-04-16T14:17:53.874Z,19.00
2023-04-16T14:20:20.829Z,18.90
2023-04-16T14:22:47.417Z,18.90
2023-04-16T14:25:14.079Z,18.80
2023-04-16T14:27:41.492Z,18.80
2023-04-16T14:30:08.314Z,18.80
2023-04-16T14:32:35.008Z,18.80
2023-04-16T14:35:01.633Z,18.80
2023-04-16T14:37:28.285Z,18.70
2023-04-16T14:39:54.945Z,18.70
2023-04-16T14:42:22.385Z,18.70
2023-04-16T14:44:48.942Z,18.60
2023-04-16T14:47:15.525Z,18.60
2023-04-16T14:49:42.145Z,18.60
2023-04-16T14:52:08.769Z,18.60
2023-04-16T14:54:38.995Z,18.60
2023-04-16T14:57:05.944Z,18.60
2023-04-16T14:59:32.593Z,18.60
2023-04-16T15:01:59.297Z,18.60
2023-04-16T15:04:26.135Z,18.60
2023-04-16T15:06:52.883Z,18.60
2023-04-16T15:09:19.540Z,18.60
2023-04-16T15:11:46.154Z,18.60
2023-04-16T15:14:13.006Z,18.60
2023-04-16T15:16:39.945Z,18.60
2023-04-16T15:19:06.622Z,18.70
2023-04-16T15:21:33.207Z,18.60
2023-04-16T15:23:59.795Z,18.50
2023-04-16T15:26:26.463Z,18.50
2023-04-16T15:28:53.009Z,18.50
2023-04-16T15:31:21.028Z,18.60
2023-04-16T15:33:48.110Z,18.50
2023-04-16T15:36:14.958Z,18.50
2023-04-16T15:38:41.919Z,18.50
2023-04-16T15:41:09.189Z,19.00
2023-04-16T15:43:35.903Z,18.50
2023-04-16T15:46:02.524Z,18.50
2023-04-16T15:48:29.220Z,18.50
2023-04-16T15:50:56.045Z,18.50
2023-04-16T15:53:22.822Z,18.50
2023-04-16T15:55:53.642Z,18.50
2023-04-16T15:58:20.999Z,18.50
2023-04-16T16:00:49.957Z,18.50
2023-04-16T16:03:20.387Z,18.60
2023-04-16T16:05:48.112Z,18.60
2023-04-16T16:08:16.619Z,18.70
2023-04-16T16:10:43.322Z,18.70
2023-04-16T16:13:13.155Z,18.80
2023-04-16T16:15:40.825Z,18.80
2023-04-16T16:18:07.531Z,18.90
2023-04-16T16:20:34.961Z,18.80
2023-04-16T16:23:01.545Z,18.80
2023-04-16T16:25:28.299Z,18.80
2023-04-16T16:27:55.034Z,18.70
2023-04-16T16:30:21.601Z,18.70
2023-04-16T16:32:48.226Z,18.70
2023-04-16T16:35:15.061Z,18.70
2023-04-16T16:37:41.684Z,18.90
2023-04-16T16:40:08.779Z,18.70
2023-04-16T16:42:35.616Z,19.10
2023-04-16T16:45:05.306Z,18.60
2023-04-16T16:47:32.635Z,18.60
2023-04-16T16:50:01.322Z,18.60
2023-04-16T16:52:29.251Z,18.60
2023-04-16T16:54:56.788Z,18.60
2023-04-16T16:57:26.397Z,18.60
2023-04-16T16:59:54.344Z,18.60
2023-04-16T17:02:21.270Z,18.60
2023-04-16T17:04:47.947Z,18.60
2023-04-16T17:07:14.559Z,18.60
2023-04-16T17:09:41.199Z,18.60
2023-04-16T17:12:07.929Z,18.60
2023-04-16T17:14:35.296Z,18.60
2023-04-16T17:17:02.098Z,18.60
2023-04-16T17:19:28.779Z,18.60
2023-04-16T17:21:55.450Z,18.60
2023-04-16T17:24:22.014Z,18.60
2023-04-16T17:26:48.554Z,18.70
2023-04-16T17:29:15.339Z,18.80
2023-04-16T17:31:42.025Z,18.80
2023-04-16T17:34:08.735Z,18.80
2023-04-16T17:36:35.636Z,18.80
2023-04-16T17:39:02.443Z,18.90
2023-04-16T17:41:29.882Z,18.90
2023-04-16T17:43:56.545Z,18.80
2023-04-16T17:46:23.229Z,18.80
2023-04-16T17:48:49.929Z,18.80
2023-04-16T17:51:16.672Z,18.80
2023-04-16T17:53:44.669Z,18.80
2023-04-16T17:56:11.651Z,18.70
2023-04-16T17:58:38.239Z,18.80
2023-04-16T18:01:05.228Z,18.90
2023-04-16T18:03:32.440Z,18.80
2023-04-16T18:05:59.352Z,18.70
2023-04-16T18:08:26.166Z,18.70
2023-04-16T18:10:54.779Z,18.70
2023-04-16T18:13:21.415Z,18.70
2023-04-16T18:15:48.273Z,18.70
2023-04-16T18:18:14.964Z,18.60
2023-04-16T18:20:41.589Z,18.60
2023-04-16T18:23:08.127Z,18.60
2023-04-16T18:25:35.377Z,18.60
2023-04-16T18:28:03.657Z,18.80
2023-04-16T18:30:30.415Z,18.70
2023-04-16T18:33:19.452Z,18.80
2023-04-16T18:35:43.612Z,18.80
2023-04-16T18:38:10.278Z,18.90
2023-04-16T18:40:37.341Z,19.00
2023-04-16T18:43:03.969Z,19.00
2023-04-16T18:45:30.831Z,19.00
2023-04-16T18:48:02.796Z,19.00
2023-04-16T18:50:29.719Z,19.00
2023-04-16T18:52:56.296Z,18.90
2023-04-16T18:55:22.965Z,18.90
2023-04-16T18:57:49.631Z,18.90
2023-04-16T19:00:16.543Z,18.80
2023-04-16T19:02:43.233Z,18.80
2023-04-16T19:05:10.031Z,18.80
2023-04-16T19:07:37.617Z,18.80
2023-04-16T19:10:05.335Z,18.80
2023-04-16T19:12:32.096Z,18.70
2023-04-16T19:14:58.814Z,18.70
2023-04-16T19:17:25.591Z,18.70
2023-04-16T19:19:52.232Z,18.70
2023-04-16T19:22:18.778Z,18.70
2023-04-16T19:24:45.554Z,18.70
2023-04-16T19:27:12.167Z,18.60
2023-04-16T19:29:40.443Z,18.60
2023-04-16T19:32:07.129Z,18.60
2023-04-16T19:34:33.883Z,18.60
2023-04-16T19:37:00.492Z,18.60
2023-04-16T19:39:29.810Z,18.60
2023-04-16T19:41:56.335Z,18.60
2023-04-16T19:44:23.248Z,18.60
2023-04-16T19:46:49.839Z,18.60
2023-04-16T19:49:16.423Z,18.60
2023-04-16T19:51:43.018Z,18.50
2023-04-16T19:54:09.613Z,18.50
2023-04-16T19:56:36.550Z,18.60
2023-04-16T19:59:03.141Z,18.60
2023-04-16T20:01:31.176Z,18.50
2023-04-16T20:03:57.896Z,18.50
2023-04-16T20:06:25.267Z,18.50
2023-04-16T20:08:51.938Z,18.50
2023-04-16T20:11:18.513Z,18.50
2023-04-16T20:13:48.088Z,18.60
2023-04-16T20:16:14.712Z,18.70
2023-04-16T20:18:41.496Z,18.70
2023-04-16T20:21:08.636Z,18.70
2023-04-16T20:23:35.258Z,18.80
2023-04-16T20:26:01.901Z,18.80
2023-04-16T20:28:28.464Z,18.90
2023-04-16T20:30:55.041Z,18.90
2023-04-16T20:33:21.663Z,18.90
2023-04-16T20:35:49.069Z,18.80
2023-04-16T20:38:15.650Z,18.80
2023-04-16T20:40:44.545Z,18.80
2023-04-16T20:43:14.432Z,18.70
2023-04-16T20:45:41.195Z,18.70
2023-04-16T20:48:07.909Z,18.70
2023-04-16T20:50:34.532Z,18.70
2023-04-16T20:53:01.113Z,18.70
2023-04-16T20:55:27.684Z,18.70
2023-04-16T20:57:54.296Z,18.60
2023-04-16T21:00:20.944Z,18.60
2023-04-16T21:02:47.690Z,18.60
2023-04-16T21:05:14.579Z,18.60
2023-04-16T21:07:41.707Z,18.60
2023-04-16T21:10:09.233Z,18.60
2023-04-16T21:12:36.525Z,18.60
2023-04-16T21:15:03.796Z,18.50
2023-04-16T21:17:30.508Z,18.60
2023-04-16T21:19:57.105Z,18.60
2023-04-16T21:22:23.809Z,18.50
2023-04-16T21:24:50.348Z,18.50
2023-04-16T21:27:16.898Z,18.60
2023-04-16T21:29:43.483Z,18.50
2023-04-16T21:32:10.117Z,18.50
2023-04-16T21:34:36.679Z,18.50
2023-04-16T21:37:03.668Z,18.50
2023-04-16T21:39:31.070Z,18.50
2023-04-16T21:41:57.989Z,18.50
2023-04-16T21:44:24.653Z,18.50
2023-04-16T21:46:51.287Z,18.50
2023-04-16T21:49:18.012Z,18.50
2023-04-16T21:51:46.089Z,18.50
2023-04-16T21:54:12.795Z,18.50
2023-04-16T21:56:46.150Z,18.50
2023-04-16T21:59:12.900Z,18.50
2023-04-16T22:01:39.708Z,18.50
2023-04-16T22:04:07.470Z,18.50
2023-04-16T22:06:34.138Z,18.50
2023-04-16T22:09:01.540Z,18.50
2023-04-16T22:11:28.079Z,18.50
2023-04-16T22:13:57.754Z,18.50
2023-04-16T22:16:24.832Z,18.60
2023-04-16T22:18:51.504Z,18.60
2023-04-16T22:21:18.167Z,18.60
2023-04-16T22:23:45.376Z,18.70
2023-04-16T22:26:12.771Z,18.70
2023-04-16T22:28:39.416Z,18.80
2023-04-16T22:31:06.062Z,18.80
2023-04-16T22:33:32.750Z,18.80
2023-04-16T22:35:59.678Z,18.80
2023-04-16T22:38:26.292Z,18.80
2023-04-16T22:40:52.830Z,18.80
2023-04-16T22:43:19.414Z,18.80
2023-04-16T22:45:48.849Z,18.80
2023-04-16T22:48:15.601Z,18.70
2023-04-16T22:50:45.771Z,18.70
2023-04-16T22:53:12.326Z,18.70
2023-04-16T22:55:38.904Z,18.70
2023-04-16T22:58:05.707Z,18.70
2023-04-16T23:00:32.273Z,18.60
2023-04-16T23:02:59.688Z,18.60
2023-04-16T23:05:27.368Z,18.60
2023-04-16T23:07:54.089Z,18.60
2023-04-16T23:10:20.795Z,18.60
2023-04-16T23:12:48.201Z,18.60
2023-04-16T23:15:15.224Z,19.00
2023-04-16T23:17:42.083Z,19.20
2023-04-16T23:20:10.100Z,18.70
2023-04-16T23:22:37.229Z,18.60
2023-04-16T23:25:04.151Z,18.60
2023-04-16T23:27:32.428Z,18.60
2023-04-16T23:29:59.328Z,18.60
2023-04-16T23:32:26.759Z,18.60
2023-04-16T23:34:53.445Z,18.50
2023-04-16T23:37:21.449Z,18.50
2023-04-16T23:39:48.021Z,18.50
2023-04-16T23:42:16.215Z,18.50
2023-04-16T23:44:42.826Z,18.50
2023-04-16T23:47:10.052Z,18.50
2023-04-16T23:49:37.249Z,18.50
2023-04-16T23:52:04.021Z,18.50
2023-04-16T23:54:30.632Z,18.40
2023-04-16T23:56:57.160Z,19.00
2023-04-16T23:59:24.723Z,18.50
